Time;durP1;ratioP1;P1;durP2;ratioP2;P2;SDS_P1;SDS_P2;PMS_P1;PMS_P2;Temp;Humidity;BMP_temperature;BMP_pressure;BME280_temperature;BME280_humidity;BME280_pressure;Samples;Min_cycle;Max_cycle;Signal;HPM_P1;HPM_P2
2022/01/09 00:00:30;;;;;;;72.18;23.80;;;4.30;99.90;;;;;;5098711;28;20036;-71
2022/01/09 00:02:56;;;;;;;68.22;23.10;;;4.30;99.90;;;;;;5090819;28;20060;-73
2022/01/09 00:05:22;;;;;;;68.35;23.33;;;4.30;99.90;;;;;;5093671;28;20507;-73
2022/01/09 00:07:48;;;;;;;73.25;24.42;;;4.40;99.90;;;;;;5100558;28;20050;-72
2022/01/09 00:10:15;;;;;;;69.55;23.63;;;4.30;99.90;;;;;;5065631;28;20040;-73
2022/01/09 00:12:41;;;;;;;67.30;24.42;;;4.30;99.90;;;;;;5088944;28;20043;-75
2022/01/09 00:15:07;;;;;;;67.68;23.67;;;4.30;99.90;;;;;;5089153;28;20402;-72
2022/01/09 00:17:33;;;;;;;63.65;21.52;;;4.40;99.90;;;;;;5088420;28;20032;-74
2022/01/09 00:19:59;;;;;;;60.47;21.35;;;4.30;99.90;;;;;;5088723;28;20042;-74
2022/01/09 00:22:58;;;;;;;56.47;20.52;;;4.40;99.90;;;;;;5071868;28;20040;-74
2022/01/09 00:25:19;;;;;;;66.20;22.40;;;4.40;99.90;;;;;;5077507;28;20451;-71
2022/01/09 00:27:45;;;;;;;64.05;22.35;;;4.40;99.90;;;;;;5086149;28;20064;-73
2022/01/09 00:30:13;;;;;;;64.70;22.17;;;4.40;99.90;;;;;;5084382;28;20126;-74
2022/01/09 00:32:39;;;;;;;59.67;20.77;;;4.40;99.90;;;;;;5087215;28;20028;-78
2022/01/09 00:35:06;;;;;;;56.17;19.50;;;4.40;99.90;;;;;;5088418;28;20078;-74
2022/01/09 00:37:32;;;;;;;64.25;21.08;;;4.40;99.90;;;;;;5088446;28;20063;-74
2022/01/09 00:39:57;;;;;;;59.70;20.60;;;4.40;99.90;;;;;;5084190;28;20494;-77
2022/01/09 00:42:23;;;;;;;58.58;22.35;;;4.40;99.90;;;;;;5087607;28;20485;-71
2022/01/09 00:44:49;;;;;;;57.17;21.25;;;4.40;99.90;;;;;;5071893;28;20505;-70
2022/01/09 00:47:14;;;;;;;53.70;20.00;;;4.50;99.90;;;;;;5100423;28;20048;-71
2022/01/09 00:49:40;;;;;;;57.88;20.73;;;4.50;99.90;;;;;;5083006;28;20138;-73
2022/01/09 00:52:05;;;;;;;57.95;21.10;;;4.50;99.90;;;;;;5089529;28;20042;-76
2022/01/09 00:54:31;;;;;;;57.47;20.38;;;4.50;99.90;;;;;;5088154;28;20398;-73
2022/01/09 00:56:56;;;;;;;58.95;20.50;;;4.50;99.90;;;;;;5085809;28;20348;-72
2022/01/09 00:59:22;;;;;;;63.88;21.70;;;4.50;99.90;;;;;;5083483;28;20047;-74
2022/01/09 01:01:48;;;;;;;60.88;21.88;;;4.60;99.90;;;;;;5068011;28;20384;-71
2022/01/09 01:04:13;;;;;;;59.13;21.00;;;4.50;99.90;;;;;;5085151;28;20427;-75
2022/01/09 01:06:39;;;;;;;66.97;23.58;;;4.60;99.90;;;;;;5087168;28;20078;-73
2022/01/09 01:09:05;;;;;;;61.97;22.77;;;4.60;99.90;;;;;;5076482;28;20032;-74
2022/01/09 01:11:31;;;;;;;69.00;22.45;;;4.50;99.90;;;;;;5102811;28;20127;-76
2022/01/09 01:13:56;;;;;;;71.28;22.38;;;4.50;99.90;;;;;;5093758;28;20048;-80
2022/01/09 01:16:22;;;;;;;68.45;23.17;;;4.50;99.90;;;;;;5096495;28;20066;-74
2022/01/09 01:18:47;;;;;;;72.13;23.80;;;4.60;99.90;;;;;;5087487;28;20063;-75
2022/01/09 01:21:13;;;;;;;71.65;23.25;;;4.50;99.90;;;;;;5105099;27;20047;-73
2022/01/09 01:23:39;;;;;;;75.90;25.85;;;4.50;99.90;;;;;;5099139;28;20569;-69
2022/01/09 01:26:05;;;;;;;80.30;26.67;;;4.50;99.90;;;;;;5094278;28;20095;-73
2022/01/09 01:28:31;;;;;;;75.38;24.58;;;4.50;99.90;;;;;;5071363;28;20040;-77
2022/01/09 01:30:57;;;;;;;76.40;26.55;;;4.50;99.90;;;;;;5071004;28;20035;-72
2022/01/09 01:33:23;;;;;;;77.05;27.08;;;4.50;99.90;;;;;;5094343;28;20036;-69
2022/01/09 01:35:49;;;;;;;82.07;26.33;;;4.60;99.90;;;;;;5094810;28;20042;-73
2022/01/09 01:38:14;;;;;;;75.18;24.10;;;4.60;99.90;;;;;;5070699;28;20051;-75
2022/01/09 01:40:40;;;;;;;64.63;22.05;;;4.60;99.90;;;;;;5094591;28;20036;-75
2022/01/09 01:43:06;;;;;;;71.78;22.85;;;4.60;99.90;;;;;;5097108;28;20487;-75
2022/01/09 01:45:32;;;;;;;63.90;20.50;;;4.60;99.90;;;;;;5096993;28;20116;-74
2022/01/09 01:48:05;;;;;;;43.95;16.63;;;4.60;99.90;;;;;;5087483;28;20127;-77
2022/01/09 01:50:35;;;;;;;47.28;15.70;;;4.70;99.90;;;;;;5093878;28;20043;-73
2022/01/09 01:53:01;;;;;;;62.65;21.17;;;4.80;99.90;;;;;;5092731;28;20042;-74
2022/01/09 01:55:28;;;;;;;55.70;17.90;;;4.90;99.90;;;;;;5079293;28;20036;-77
2022/01/09 01:57:54;;;;;;;45.47;17.17;;;4.90;99.90;;;;;;5087054;28;20059;-73
2022/01/09 02:00:20;;;;;;;37.08;12.68;;;5.00;99.90;;;;;;5088438;28;20456;-73
2022/01/09 02:02:46;;;;;;;37.13;14.05;;;5.00;99.90;;;;;;5071530;28;20536;-69
2022/01/09 02:05:12;;;;;;;36.33;12.77;;;5.20;99.90;;;;;;5088461;28;20048;-72
2022/01/09 02:07:38;;;;;;;37.63;12.55;;;5.20;99.90;;;;;;5078479;28;20038;-74
2022/01/09 02:10:07;;;;;;;29.25;10.07;;;5.30;99.90;;;;;;5084545;28;20120;-72
2022/01/09 02:12:36;;;;;;;28.38;9.27;;;5.30;99.90;;;;;;5066874;28;20036;-73
2022/01/09 02:15:02;;;;;;;29.42;8.45;;;5.40;99.90;;;;;;5087289;28;20035;-77
2022/01/09 02:17:28;;;;;;;28.38;7.82;;;5.40;99.90;;;;;;5068339;28;20028;-77
2022/01/09 02:19:55;;;;;;;27.88;6.50;;;5.50;99.90;;;;;;5086165;28;20043;-79
2022/01/09 02:22:23;;;;;;;25.30;6.57;;;5.60;99.90;;;;;;5085546;28;20044;-79
2022/01/09 02:24:49;;;;;;;28.20;6.53;;;5.70;99.90;;;;;;5082101;28;20040;-78
2022/01/09 02:27:16;;;;;;;27.60;5.65;;;5.70;99.90;;;;;;5085338;28;20044;-77
2022/01/09 02:29:44;;;;;;;32.42;6.32;;;5.70;99.90;;;;;;5083960;28;20234;-75
2022/01/09 02:32:10;;;;;;;23.83;5.50;;;5.80;99.90;;;;;;5087279;28;20095;-75
2022/01/09 02:34:35;;;;;;;28.45;5.22;;;5.80;99.90;;;;;;5087170;28;20461;-76
2022/01/09 02:37:01;;;;;;;22.25;4.30;;;5.90;99.90;;;;;;5091556;28;20028;-78
2022/01/09 02:39:26;;;;;;;31.02;4.72;;;5.80;99.90;;;;;;5090904;28;20526;-77
2022/01/09 02:41:52;;;;;;;20.40;3.05;;;5.80;99.90;;;;;;5088143;28;20468;-77
2022/01/09 02:44:17;;;;;;;15.55;4.05;;;5.90;99.90;;;;;;5090871;28;20036;-76
2022/01/09 02:47:04;;;;;;;23.80;2.75;;;6.00;99.90;;;;;;5081125;28;20059;-73
2022/01/09 02:49:31;;;;;;;29.92;3.70;;;6.00;99.90;;;;;;5085064;28;20119;-73
2022/01/09 02:51:58;;;;;;;27.08;3.05;;;6.10;99.90;;;;;;5096033;28;20044;-74
2022/01/09 02:57:08;;;;;;;29.50;4.55;;;6.20;99.90;;;;;;5089418;28;20500;-76
2022/01/09 02:59:33;;;;;;;29.77;4.50;;;6.20;99.90;;;;;;5091258;28;20036;-75
2022/01/09 03:01:59;;;;;;;33.25;4.10;;;6.20;99.90;;;;;;5099951;28;20067;-74
2022/01/09 03:04:24;;;;;;;21.05;2.40;;;6.10;99.90;;;;;;5091822;28;20043;-78
2022/01/09 03:06:50;;;;;;;33.25;3.50;;;6.10;99.90;;;;;;5093232;28;20094;-76
2022/01/09 03:09:16;;;;;;;30.83;3.08;;;6.10;99.90;;;;;;5091229;28;20040;-73
2022/01/09 03:11:41;;;;;;;40.88;4.72;;;6.20;99.90;;;;;;5070758;28;20045;-74
2022/01/09 03:14:09;;;;;;;45.08;4.10;;;6.10;99.90;;;;;;5091562;28;20035;-72
2022/01/09 03:16:35;;;;;;;23.33;3.92;;;6.20;99.90;;;;;;5098147;28;20431;-77
2022/01/09 03:19:00;;;;;;;45.17;4.88;;;6.10;99.90;;;;;;5089242;28;20032;-73
2022/01/09 03:21:26;;;;;;;37.65;3.92;;;6.10;99.90;;;;;;5078187;28;20429;-72
2022/01/09 03:23:51;;;;;;;36.28;5.57;;;6.10;99.90;;;;;;5099243;28;20459;-74
2022/01/09 03:26:17;;;;;;;34.75;5.28;;;6.20;99.90;;;;;;5091102;28;20131;-77
2022/01/09 03:28:42;;;;;;;52.90;6.00;;;6.30;99.90;;;;;;5098559;28;20115;-73
2022/01/09 03:31:08;;;;;;;43.08;5.32;;;6.30;99.90;;;;;;5094007;28;20058;-76
2022/01/09 03:33:34;;;;;;;32.65;3.97;;;6.30;99.90;;;;;;5070489;28;20072;-73
2022/01/09 03:35:59;;;;;;;38.90;4.93;;;6.30;99.90;;;;;;5077122;28;20047;-73
2022/01/09 03:38:25;;;;;;;41.40;5.45;;;6.40;99.90;;;;;;5092382;28;20032;-76
2022/01/09 03:40:50;;;;;;;42.03;5.32;;;6.50;99.90;;;;;;5075277;28;20088;-78
2022/01/09 03:43:17;;;;;;;53.35;4.90;;;6.40;99.90;;;;;;5091636;28;20050;-77
2022/01/09 03:45:43;;;;;;;42.22;5.43;;;6.40;99.90;;;;;;5091298;28;20115;-76
2022/01/09 03:48:09;;;;;;;55.83;6.05;;;6.50;99.90;;;;;;5087626;28;20170;-73
2022/01/09 03:50:35;;;;;;;31.27;4.75;;;6.50;99.90;;;;;;5088211;28;20038;-72
2022/01/09 03:53:01;;;;;;;52.80;6.13;;;6.50;99.90;;;;;;5091515;28;20034;-73
2022/01/09 03:55:26;;;;;;;57.95;6.07;;;6.50;99.90;;;;;;5090387;28;20036;-73
2022/01/09 03:57:52;;;;;;;32.92;4.10;;;6.50;99.90;;;;;;5096588;28;20037;-76
2022/01/09 04:00:20;;;;;;;47.15;5.10;;;6.50;99.90;;;;;;5095430;28;20474;-78
2022/01/09 04:02:48;;;;;;;52.38;5.47;;;6.50;99.90;;;;;;5079320;28;20134;-73
2022/01/09 04:05:14;;;;;;;53.88;5.25;;;6.50;99.90;;;;;;5091324;28;20443;-73
2022/01/09 04:07:39;;;;;;;53.95;5.43;;;6.50;99.90;;;;;;5090629;28;20032;-70
2022/01/09 04:10:06;;;;;;;31.58;3.95;;;6.50;99.90;;;;;;5088250;28;20032;-76
2022/01/09 04:12:35;;;;;;;51.10;6.43;;;6.50;99.90;;;;;;5091962;28;20044;-75
2022/01/09 04:15:04;;;;;;;32.13;4.43;;;6.50;99.90;;;;;;5092266;28;20070;-73
2022/01/09 04:17:43;;;;;;;37.30;3.95;;;6.50;99.90;;;;;;5090686;28;20036;-71
2022/01/09 04:20:10;;;;;;;30.67;4.78;;;6.60;99.90;;;;;;5089317;28;20119;-70
2022/01/09 04:22:35;;;;;;;46.28;5.57;;;6.60;99.90;;;;;;5072121;28;20046;-76
2022/01/09 04:25:01;;;;;;;30.73;3.97;;;6.50;99.90;;;;;;5078464;28;20042;-74
2022/01/09 04:27:27;;;;;;;47.63;4.43;;;6.60;99.90;;;;;;5089832;28;20032;-75
2022/01/09 04:29:52;;;;;;;56.28;4.90;;;6.60;99.90;;;;;;5091103;28;20044;-72
2022/01/09 04:32:19;;;;;;;53.80;5.82;;;6.50;99.90;;;;;;5091190;28;20554;-73
2022/01/09 04:34:45;;;;;;;39.15;3.40;;;6.50;99.90;;;;;;5091573;28;20047;-74
2022/01/09 04:37:10;;;;;;;33.58;4.03;;;6.50;99.90;;;;;;5091170;28;20058;-77
2022/01/09 04:39:36;;;;;;;34.50;2.95;;;6.50;99.90;;;;;;5074548;28;20545;-74
2022/01/09 04:42:01;;;;;;;23.17;3.20;;;6.50;99.90;;;;;;5088913;28;20028;-80
2022/01/09 04:44:27;;;;;;;25.33;3.67;;;6.50;99.90;;;;;;5097303;28;20127;-77
2022/01/09 04:46:58;;;;;;;34.10;3.28;;;6.40;99.90;;;;;;5083737;28;20083;-77
2022/01/09 04:49:24;;;;;;;35.67;3.47;;;6.40;99.90;;;;;;5093155;28;20539;-75
2022/01/09 04:51:50;;;;;;;23.92;3.33;;;6.40;99.90;;;;;;5075140;28;20035;-75
2022/01/09 04:54:16;;;;;;;38.83;3.28;;;6.40;99.90;;;;;;5090706;28;20036;-73
2022/01/09 04:56:41;;;;;;;25.77;3.38;;;6.40;99.90;;;;;;5090923;28;20499;-74
2022/01/09 04:59:07;;;;;;;17.48;2.67;;;6.40;99.90;;;;;;5077781;28;20118;-71
2022/01/09 05:01:32;;;;;;;24.38;1.92;;;6.40;99.90;;;;;;5090337;28;20134;-75
2022/01/09 05:03:58;;;;;;;15.82;2.28;;;6.40;99.90;;;;;;5090665;28;20404;-76
2022/01/09 05:06:24;;;;;;;16.85;4.15;;;6.30;99.90;;;;;;5088481;28;20513;-75
2022/01/09 05:08:50;;;;;;;29.73;2.53;;;6.30;99.90;;;;;;5088866;28;20549;-70
2022/01/09 05:11:15;;;;;;;28.20;2.25;;;6.20;99.90;;;;;;5090470;28;20028;-74
2022/01/09 05:13:41;;;;;;;28.88;3.30;;;6.20;99.90;;;;;;5076340;28;20037;-71
2022/01/09 05:16:06;;;;;;;22.48;2.63;;;6.20;99.90;;;;;;5086021;28;20034;-75
2022/01/09 05:18:41;;;;;;;27.75;3.42;;;6.20;99.90;;;;;;5094239;28;20038;-78
2022/01/09 05:21:06;;;;;;;50.33;2.97;;;6.10;99.90;;;;;;5083961;28;20049;-76
2022/01/09 05:23:32;;;;;;;27.73;4.00;;;6.10;99.90;;;;;;5090045;28;20036;-77
2022/01/09 05:25:57;;;;;;;25.63;3.80;;;6.00;99.90;;;;;;5093130;28;20046;-72
2022/01/09 05:28:23;;;;;;;35.20;3.95;;;6.00;99.90;;;;;;5086025;28;20041;-79
2022/01/09 05:30:48;;;;;;;48.45;4.38;;;6.00;99.90;;;;;;5077552;28;20112;-77
2022/01/09 05:33:14;;;;;;;31.50;4.15;;;6.00;99.90;;;;;;5076253;28;20406;-75
2022/01/09 05:35:39;;;;;;;32.25;3.45;;;6.00;99.90;;;;;;5090766;28;20036;-76
2022/01/09 05:38:05;;;;;;;29.23;3.60;;;5.90;99.90;;;;;;5089387;28;20036;-72
2022/01/09 05:40:30;;;;;;;33.42;4.97;;;6.00;99.90;;;;;;5089701;28;20036;-77
2022/01/09 05:42:56;;;;;;;30.42;3.78;;;6.00;99.90;;;;;;5088701;28;20422;-77
2022/01/09 05:45:22;;;;;;;36.08;3.42;;;6.00;99.90;;;;;;5090549;28;20564;-76
2022/01/09 05:47:47;;;;;;;26.45;3.60;;;6.00;99.90;;;;;;5083971;28;20044;-72
2022/01/09 05:50:13;;;;;;;36.20;3.25;;;6.00;99.90;;;;;;5085969;28;20154;-73
2022/01/09 05:52:38;;;;;;;19.63;2.60;;;5.90;99.90;;;;;;5085850;28;20027;-75
2022/01/09 05:55:05;;;;;;;24.63;2.47;;;6.00;99.90;;;;;;5094594;28;20448;-75
2022/01/09 05:57:30;;;;;;;37.53;3.97;;;6.00;99.90;;;;;;5073266;28;20035;-77
2022/01/09 05:59:56;;;;;;;29.85;2.90;;;5.90;99.90;;;;;;5074367;28;20044;-71
2022/01/09 06:02:21;;;;;;;35.83;4.32;;;5.80;99.90;;;;;;5090019;28;20085;-77
2022/01/09 06:04:47;;;;;;;25.63;2.72;;;5.80;99.90;;;;;;5091097;28;20055;-76
2022/01/09 06:07:12;;;;;;;33.72;3.08;;;5.80;99.90;;;;;;5089026;28;20036;-74
2022/01/09 06:09:38;;;;;;;24.67;2.25;;;5.80;99.90;;;;;;5082730;28;20040;-76
2022/01/09 06:12:03;;;;;;;18.52;2.70;;;5.70;99.90;;;;;;5089692;28;20325;-75
2022/01/09 06:14:29;;;;;;;20.15;3.67;;;5.70;99.90;;;;;;5106662;28;20062;-77
2022/01/09 06:16:54;;;;;;;21.73;2.72;;;5.70;99.90;;;;;;5095174;28;20524;-75
2022/01/09 06:19:20;;;;;;;22.42;2.55;;;5.60;99.90;;;;;;5088822;28;20032;-77
2022/01/09 06:21:45;;;;;;;21.55;2.83;;;5.60;99.90;;;;;;5088938;28;20101;-72
2022/01/09 06:24:11;;;;;;;33.65;3.45;;;5.60;99.90;;;;;;5088049;28;20036;-71
2022/01/09 06:26:37;;;;;;;30.17;4.20;;;5.60;99.90;;;;;;5088858;28;20036;-74
2022/01/09 06:29:02;;;;;;;21.63;2.92;;;5.60;99.90;;;;;;5088051;28;20043;-73
2022/01/09 06:31:28;;;;;;;25.60;3.28;;;5.60;99.90;;;;;;5081670;28;20051;-73
2022/01/09 06:33:53;;;;;;;17.90;2.63;;;5.70;99.90;;;;;;5088660;28;20135;-77
2022/01/09 06:36:19;;;;;;;14.63;2.20;;;5.70;99.90;;;;;;5088479;28;20028;-76
2022/01/09 06:38:44;;;;;;;23.67;3.65;;;5.70;99.90;;;;;;5086046;28;20123;-71
2022/01/09 06:41:10;;;;;;;27.10;3.95;;;5.70;99.90;;;;;;5089459;28;20048;-78
2022/01/09 06:43:36;;;;;;;17.02;3.00;;;5.70;99.90;;;;;;5089106;28;20077;-76
2022/01/09 06:46:01;;;;;;;20.42;3.25;;;5.70;99.90;;;;;;5077702;28;20398;-76
2022/01/09 06:48:27;;;;;;;18.02;3.08;;;5.60;99.90;;;;;;5077938;28;20039;-76
2022/01/09 06:50:52;;;;;;;18.15;2.10;;;5.60;99.90;;;;;;5086386;28;20437;-78
2022/01/09 06:53:18;;;;;;;18.75;2.90;;;5.60;99.90;;;;;;5089841;28;20471;-79
2022/01/09 06:55:43;;;;;;;16.50;2.38;;;5.60;99.90;;;;;;5085707;28;20073;-74
2022/01/09 06:58:09;;;;;;;8.98;2.58;;;5.50;99.90;;;;;;5089441;28;20044;-72
2022/01/09 07:00:35;;;;;;;20.23;2.15;;;5.60;99.90;;;;;;5082454;28;20475;-70
2022/01/09 07:03:00;;;;;;;19.65;2.05;;;5.50;99.90;;;;;;5086642;28;20039;-75
2022/01/09 07:05:26;;;;;;;12.10;1.73;;;5.50;99.90;;;;;;5088742;28;20446;-72
2022/01/09 07:07:51;;;;;;;10.13;1.50;;;5.50;99.90;;;;;;5087878;28;20121;-75
2022/01/09 07:10:17;;;;;;;12.77;1.67;;;5.50;99.90;;;;;;5087777;28;20101;-76
2022/01/09 07:12:42;;;;;;;17.15;1.98;;;5.60;99.90;;;;;;5087778;28;20040;-78
2022/01/09 07:15:09;;;;;;;12.18;2.42;;;5.50;99.90;;;;;;5072946;28;20032;-78
2022/01/09 07:17:35;;;;;;;18.77;2.45;;;5.50;99.90;;;;;;5087774;28;20490;-77
2022/01/09 07:20:00;;;;;;;19.58;2.83;;;5.40;99.90;;;;;;5072234;28;20048;-72
2022/01/09 07:22:27;;;;;;;19.80;3.25;;;5.30;99.90;;;;;;5088234;28;20051;-74
2022/01/09 07:24:53;;;;;;;12.32;1.95;;;5.30;99.90;;;;;;5092270;28;20159;-77
2022/01/09 07:27:18;;;;;;;26.17;4.03;;;5.20;99.90;;;;;;5090257;28;20126;-78
2022/01/09 07:29:44;;;;;;;27.88;3.80;;;5.20;99.90;;;;;;5089181;28;20044;-76
2022/01/09 07:32:09;;;;;;;25.17;3.13;;;5.20;99.90;;;;;;5091403;28;20278;-75
2022/01/09 07:34:35;;;;;;;29.67;2.92;;;5.20;99.90;;;;;;5090846;28;20032;-76
2022/01/09 07:37:02;;;;;;;15.50;2.58;;;5.30;99.90;;;;;;5087144;28;20044;-73
2022/01/09 07:39:28;;;;;;;18.27;2.85;;;5.30;99.90;;;;;;5089791;28;20032;-78
2022/01/09 07:41:54;;;;;;;15.55;2.47;;;5.30;99.90;;;;;;5093940;28;20040;-76
2022/01/09 07:44:20;;;;;;;16.58;2.58;;;5.30;99.90;;;;;;5089310;28;20404;-76
2022/01/09 07:46:46;;;;;;;28.08;3.65;;;5.30;99.90;;;;;;5090946;28;20047;-77
2022/01/09 07:49:11;;;;;;;17.95;2.13;;;5.30;99.90;;;;;;5088124;28;20036;-77
2022/01/09 07:51:37;;;;;;;24.95;2.60;;;5.30;99.90;;;;;;5090231;28;20047;-75
2022/01/09 07:54:02;;;;;;;19.70;2.70;;;5.20;99.90;;;;;;5085607;28;20044;-73
2022/01/09 07:56:28;;;;;;;14.95;2.35;;;5.20;99.90;;;;;;5088297;28;20438;-76
2022/01/09 07:58:53;;;;;;;24.55;3.63;;;5.20;99.90;;;;;;5089293;28;20494;-75
2022/01/09 08:01:19;;;;;;;11.00;1.90;;;5.20;99.90;;;;;;5082893;28;20122;-75
2022/01/09 08:03:44;;;;;;;18.90;2.40;;;5.20;99.90;;;;;;5069055;28;20067;-74
2022/01/09 08:06:10;;;;;;;20.63;3.15;;;5.30;99.90;;;;;;5094692;28;20040;-75
2022/01/09 08:08:35;;;;;;;13.43;1.23;;;5.20;99.90;;;;;;5087676;28;20036;-72
2022/01/09 08:11:01;;;;;;;6.72;1.38;;;5.20;99.90;;;;;;5090436;28;20062;-74
2022/01/09 08:13:26;;;;;;;8.73;1.70;;;5.30;99.90;;;;;;5090012;28;20067;-77
2022/01/09 08:15:52;;;;;;;15.90;2.22;;;5.30;99.90;;;;;;5090118;28;20486;-71
2022/01/09 08:18:17;;;;;;;12.30;2.15;;;5.30;99.90;;;;;;5090937;28;20036;-74
2022/01/09 08:20:43;;;;;;;10.73;1.85;;;5.30;99.90;;;;;;5073928;28;20043;-79
2022/01/09 08:23:08;;;;;;;12.63;2.03;;;5.30;99.90;;;;;;5092080;28;20490;-71
2022/01/09 08:25:34;;;;;;;6.70;1.48;;;5.20;99.90;;;;;;5089247;28;20032;-70
2022/01/09 08:28:00;;;;;;;17.88;2.78;;;5.20;99.90;;;;;;5090247;28;20553;-80
2022/01/09 08:30:25;;;;;;;24.95;2.65;;;5.10;99.90;;;;;;5089815;28;20549;-79
2022/01/09 08:32:53;;;;;;;19.23;2.67;;;5.10;99.90;;;;;;5075773;28;20505;-77
2022/01/09 08:35:21;;;;;;;25.45;2.95;;;5.00;99.90;;;;;;5092703;28;20470;-77
2022/01/09 08:37:47;;;;;;;23.83;2.95;;;5.00;99.90;;;;;;5092076;28;20050;-75
2022/01/09 08:40:17;;;;;;;14.63;2.70;;;4.90;99.90;;;;;;5083278;28;20036;-76
2022/01/09 08:42:43;;;;;;;26.73;3.10;;;4.90;99.90;;;;;;5090683;28;20105;-77
2022/01/09 08:45:09;;;;;;;20.65;4.03;;;4.90;99.90;;;;;;5101756;28;20146;-75
2022/01/09 08:47:37;;;;;;;26.52;3.90;;;4.80;99.90;;;;;;5092143;28;20398;-76
2022/01/09 08:50:06;;;;;;;23.75;3.03;;;4.80;99.90;;;;;;5092733;28;20040;-74
2022/01/09 08:52:32;;;;;;;33.55;4.13;;;4.80;99.90;;;;;;5108389;28;20033;-74
2022/01/09 08:54:57;;;;;;;22.77;3.65;;;4.70;99.90;;;;;;5084241;28;20040;-75
2022/01/09 08:57:25;;;;;;;34.00;3.88;;;4.80;99.90;;;;;;5091524;28;20082;-74
2022/01/09 08:59:50;;;;;;;32.55;4.47;;;4.80;99.90;;;;;;5088071;28;20040;-73
2022/01/09 09:02:16;;;;;;;24.33;3.20;;;4.80;99.90;;;;;;5091716;28;20406;-75
2022/01/09 09:04:42;;;;;;;46.92;5.68;;;4.90;99.90;;;;;;5094856;28;20038;-74
2022/01/09 09:07:09;;;;;;;33.55;4.65;;;4.90;99.90;;;;;;5091745;28;20035;-74
2022/01/09 09:09:37;;;;;;;39.10;4.80;;;5.00;99.90;;;;;;5088548;28;20032;-74
2022/01/09 09:12:04;;;;;;;32.33;4.40;;;5.00;99.90;;;;;;5090401;28;20036;-73
2022/01/09 09:14:30;;;;;;;31.67;4.03;;;5.00;99.90;;;;;;5086085;28;20398;-77
2022/01/09 09:16:55;;;;;;;45.35;5.07;;;5.00;99.90;;;;;;5090663;28;20271;-76
2022/01/09 09:19:21;;;;;;;32.08;4.15;;;5.00;99.90;;;;;;5094453;28;20032;-76
2022/01/09 09:21:46;;;;;;;29.13;3.53;;;5.00;99.90;;;;;;5091272;28;20105;-72
2022/01/09 09:24:13;;;;;;;15.52;2.80;;;5.10;99.90;;;;;;5091372;28;20048;-75
2022/01/09 09:26:39;;;;;;;26.40;2.72;;;5.10;99.90;;;;;;5091254;28;20032;-74
2022/01/09 09:29:05;;;;;;;26.05;3.45;;;5.10;99.90;;;;;;5089173;28;20123;-74
2022/01/09 09:31:31;;;;;;;28.75;3.20;;;5.10;99.90;;;;;;5091458;28;20040;-74
2022/01/09 09:33:57;;;;;;;36.28;4.15;;;5.10;99.90;;;;;;5089615;28;20047;-75
2022/01/09 09:36:24;;;;;;;41.47;5.20;;;5.10;99.90;;;;;;5091734;28;20036;-74
2022/01/09 09:38:50;;;;;;;45.22;4.72;;;5.10;99.90;;;;;;5091328;28;20093;-76
2022/01/09 09:41:15;;;;;;;36.90;4.63;;;5.10;99.90;;;;;;5091802;28;20059;-76
2022/01/09 09:43:41;;;;;;;41.90;4.95;;;5.10;99.90;;;;;;5090059;28;20040;-76
2022/01/09 09:46:07;;;;;;;40.90;5.15;;;5.10;99.90;;;;;;5089166;28;20047;-74
2022/01/09 09:48:32;;;;;;;32.67;5.45;;;5.10;99.90;;;;;;5082499;28;20052;-74
2022/01/09 09:50:58;;;;;;;51.72;5.85;;;5.10;99.90;;;;;;5101043;28;20380;-77
2022/01/09 09:53:23;;;;;;;41.05;5.22;;;5.10;99.90;;;;;;5087382;28;20086;-74
2022/01/09 09:55:51;;;;;;;50.25;5.45;;;5.10;99.90;;;;;;5093571;28;20028;-75
2022/01/09 09:58:17;;;;;;;34.08;5.15;;;5.20;99.90;;;;;;5093067;28;20044;-74
2022/01/09 10:00:54;;;;;;;41.80;5.32;;;5.20;99.90;;;;;;5079698;28;20059;-74
2022/01/09 10:03:31;;;;;;;35.65;5.13;;;5.20;99.90;;;;;;5083291;28;20039;-72
2022/01/09 10:05:57;;;;;;;35.80;5.75;;;5.20;99.90;;;;;;5072703;28;20125;-73
2022/01/09 10:08:37;;;;;;;43.60;5.75;;;5.30;99.90;;;;;;5082874;28;20055;-73
2022/01/09 10:11:17;;;;;;;36.50;5.20;;;5.30;99.90;;;;;;5087296;28;20119;-74
2022/01/09 10:13:43;;;;;;;32.85;5.38;;;5.40;99.90;;;;;;5087653;28;20068;-76
2022/01/09 10:16:10;;;;;;;39.65;5.28;;;5.50;99.90;;;;;;5071383;28;20028;-76
2022/01/09 10:18:47;;;;;;;36.88;4.75;;;5.50;99.90;;;;;;5088095;28;20028;-76
2022/01/09 10:21:19;;;;;;;35.38;4.57;;;5.60;99.90;;;;;;5073840;28;20036;-75
2022/01/09 10:24:06;;;;;;;28.35;5.45;;;5.70;99.90;;;;;;5073098;28;20125;-76
2022/01/09 10:26:37;;;;;;;36.90;4.95;;;5.80;99.90;;;;;;5070857;28;20045;-76
2022/01/09 10:29:06;;;;;;;23.15;3.33;;;5.80;99.90;;;;;;5099304;28;20122;-75
2022/01/09 10:31:47;;;;;;;31.75;3.92;;;5.80;99.90;;;;;;5097886;28;20036;-76
2022/01/09 10:34:18;;;;;;;39.13;5.43;;;5.80;99.90;;;;;;5089308;28;20050;-76
2022/01/09 10:36:51;;;;;;;45.78;5.45;;;5.80;99.90;;;;;;5075404;28;20043;-75
2022/01/09 10:39:40;;;;;;;32.40;4.63;;;5.80;99.90;;;;;;5097069;28;20050;-74
2022/01/09 10:42:07;;;;;;;25.45;4.35;;;5.80;99.90;;;;;;5100737;28;20040;-75
2022/01/09 10:44:38;;;;;;;34.97;4.80;;;5.90;99.90;;;;;;5099808;28;20074;-76
2022/01/09 10:47:12;;;;;;;38.25;4.63;;;5.90;99.90;;;;;;5073652;28;20047;-76
2022/01/09 10:49:52;;;;;;;36.67;4.75;;;5.80;99.90;;;;;;5100336;28;20119;-76
2022/01/09 10:52:22;;;;;;;36.05;5.25;;;5.80;99.90;;;;;;5083616;28;20093;-75
2022/01/09 10:54:49;;;;;;;40.33;5.30;;;5.80;99.90;;;;;;5071654;28;20036;-76
2022/01/09 10:57:28;;;;;;;35.13;4.13;;;5.80;99.90;;;;;;5092169;28;20036;-74
2022/01/09 11:00:08;;;;;;;40.97;5.15;;;5.80;99.90;;;;;;5078840;28;20407;-76
2022/01/09 11:02:34;;;;;;;31.02;4.88;;;5.90;99.90;;;;;;5091185;28;20040;-72
2022/01/09 11:04:59;;;;;;;37.30;5.53;;;5.90;99.90;;;;;;5091605;28;20433;-73
2022/01/09 11:07:25;;;;;;;33.65;4.05;;;6.00;99.90;;;;;;5089702;28;20368;-73
2022/01/09 11:09:52;;;;;;;25.45;4.28;;;6.00;99.90;;;;;;5086707;28;20051;-72
2022/01/09 11:12:20;;;;;;;28.08;4.97;;;6.10;99.90;;;;;;5084504;28;20031;-73
2022/01/09 11:14:49;;;;;;;37.50;5.10;;;6.10;99.90;;;;;;5094162;28;20105;-71
2022/01/09 11:17:17;;;;;;;25.38;3.60;;;6.10;99.90;;;;;;5088421;28;20047;-74
2022/01/09 11:19:43;;;;;;;29.02;4.03;;;6.20;99.90;;;;;;5082329;28;20031;-74
2022/01/09 11:22:12;;;;;;;37.92;4.07;;;6.10;99.90;;;;;;5077593;28;20040;-75
2022/01/09 11:25:05;;;;;;;36.97;5.13;;;6.20;99.90;;;;;;5097954;28;20031;-73
2022/01/09 11:28:00;;;;;;;39.40;5.22;;;6.20;99.90;;;;;;5100906;28;20035;-74
2022/01/09 11:30:53;;;;;;;25.33;3.72;;;6.20;99.90;;;;;;5096647;28;20394;-74
2022/01/09 11:33:28;;;;;;;36.03;4.75;;;6.20;99.90;;;;;;5096187;28;20093;-72
2022/01/09 11:36:08;;;;;;;39.13;5.28;;;6.10;99.90;;;;;;5102442;28;20047;-72
2022/01/09 11:39:11;;;;;;;29.02;4.32;;;6.10;99.90;;;;;;5093162;28;20040;-74
2022/01/09 11:41:41;;;;;;;27.92;4.32;;;6.20;99.90;;;;;;5089382;28;20055;-73
2022/01/09 11:44:11;;;;;;;48.15;4.97;;;6.10;99.90;;;;;;5089414;28;20044;-76
2022/01/09 11:47:00;;;;;;;35.85;5.60;;;6.20;99.90;;;;;;5087625;28;20040;-76
2022/01/09 11:49:27;;;;;;;31.20;4.85;;;6.40;99.90;;;;;;5084942;28;20047;-74
2022/01/09 11:51:56;;;;;;;43.97;5.22;;;6.60;99.90;;;;;;5097419;28;20036;-73
2022/01/09 11:54:23;;;;;;;33.72;5.65;;;6.80;99.90;;;;;;5097208;28;20036;-71
2022/01/09 11:57:03;;;;;;;43.03;5.07;;;6.90;99.90;;;;;;5092030;28;20040;-74
2022/01/09 11:59:38;;;;;;;40.50;4.55;;;6.90;99.90;;;;;;5105934;27;20047;-74
2022/01/09 12:02:04;;;;;;;32.05;3.83;;;7.00;99.90;;;;;;5081424;28;20131;-75
2022/01/09 12:04:33;;;;;;;32.83;4.70;;;7.10;99.90;;;;;;5091198;28;20036;-76
2022/01/09 12:07:03;;;;;;;30.15;4.85;;;7.00;99.90;;;;;;5091821;28;20438;-74
2022/01/09 12:09:42;;;;;;;26.40;4.50;;;7.10;99.90;;;;;;5094247;28;20040;-75
2022/01/09 12:12:16;;;;;;;25.33;3.78;;;7.10;99.90;;;;;;5092144;28;20040;-72
2022/01/09 12:14:44;;;;;;;15.40;1.88;;;7.20;99.90;;;;;;5099314;28;20036;-73
2022/01/09 12:17:22;;;;;;;8.88;1.98;;;7.10;99.90;;;;;;5090523;28;20040;-77
2022/01/09 12:20:04;;;;;;;17.95;2.47;;;6.80;99.90;;;;;;5102990;28;20496;-72
2022/01/09 12:22:39;;;;;;;16.95;2.20;;;6.60;99.90;;;;;;5093986;28;20067;-76
2022/01/09 12:25:05;;;;;;;11.48;1.70;;;6.50;99.90;;;;;;5086858;28;20418;-72
2022/01/09 12:27:42;;;;;;;18.25;2.30;;;6.50;99.90;;;;;;5091570;28;20036;-75
2022/01/09 12:30:10;;;;;;;22.83;2.30;;;6.50;99.90;;;;;;5075329;28;20071;-71
2022/01/09 12:32:43;;;;;;;20.65;3.15;;;6.50;99.90;;;;;;5097661;28;20513;-74
2022/01/09 12:35:17;;;;;;;12.07;2.03;;;6.50;99.90;;;;;;5086980;28;20036;-71
2022/01/09 12:37:47;;;;;;;15.18;1.98;;;6.50;99.90;;;;;;5093457;28;20031;-76
2022/01/09 12:40:21;;;;;;;14.20;2.47;;;6.50;99.90;;;;;;5092345;28;20123;-70
2022/01/09 12:42:50;;;;;;;17.30;2.00;;;6.50;99.90;;;;;;5089136;28;20050;-76
2022/01/09 12:45:20;;;;;;;15.25;2.50;;;6.50;99.90;;;;;;5089557;28;20068;-76
2022/01/09 12:47:46;;;;;;;20.65;2.20;;;6.50;99.90;;;;;;5072787;28;20050;-74
2022/01/09 12:50:11;;;;;;;21.10;2.40;;;6.40;99.90;;;;;;5084453;28;20028;-76